Gary, South Dakota
Current Conditions -  °F | °C
As of 9:13 AM on Thursday 23 Oct 2014 (Local Time) from KCNB Reporting Station
Clear Clear  
Wind Chill: 51°   Ceiling: Unl
Heat Index: 51°   Visibility: 10mi
Dew Point: 45°   Wind: 12mph
Humidity: 81%   Direction: 240°WSW
Pressure: 30"   Gusts: NA
Location:  44.79°N, 96.46°W
Report Text: KCNB 231413Z AUTO 24010KT 10SM CLR 11/07 A3000 RMK AO2 T01050074
Loading
Personal Weather Stations






























Interactive Weather Map
Tropical Storm Tracking
New forecast layout! Learn more

10-Day Weather Forecast

Advertisements
Track Severe Weather on mobile